createdAt,value
2022-09-24T00:03:17.594Z,9.37
2022-09-24T00:08:20.258Z,9.32
2022-09-24T00:13:21.895Z,9.19
2022-09-24T00:18:23.538Z,9.09
2022-09-24T00:23:25.753Z,9.05
2022-09-24T00:28:27.649Z,9.02
2022-09-24T00:33:29.301Z,8.98
2022-09-24T00:38:34.153Z,8.89
2022-09-24T00:43:39.039Z,8.65
2022-09-24T00:48:42.823Z,8.72
2022-09-24T00:53:48.653Z,8.73
2022-09-24T00:58:54.962Z,8.77
2022-09-24T01:03:58.192Z,8.78
2022-09-24T01:09:00.728Z,8.84
2022-09-24T01:14:40.941Z,8.85
2022-09-24T01:19:45.570Z,8.78
2022-09-24T01:24:47.111Z,8.70
2022-09-24T01:30:05.997Z,8.62
2022-09-24T01:35:21.745Z,8.54
2022-09-24T01:40:27.070Z,8.57
2022-09-24T01:45:31.799Z,8.56
2022-09-24T01:50:40.528Z,8.55
2022-09-24T01:55:49.741Z,8.50
2022-09-24T02:00:57.559Z,8.48
2022-09-24T02:06:08.728Z,8.41
2022-09-24T02:11:17.413Z,8.40
2022-09-24T02:16:24.853Z,8.39
2022-09-24T02:21:28.808Z,8.35
2022-09-24T02:26:30.429Z,8.36
2022-09-24T02:31:37.883Z,8.31
2022-09-24T02:36:40.932Z,8.38
2022-09-24T02:41:42.709Z,8.37
2022-09-24T02:46:46.072Z,8.40
2022-09-24T02:51:47.757Z,8.35
2022-09-24T02:56:49.473Z,8.29
2022-09-24T03:01:51.185Z,8.27
2022-09-24T03:06:53.384Z,8.27
2022-09-24T03:11:55.553Z,8.30
2022-09-24T03:16:57.133Z,8.31
2022-09-24T03:21:58.814Z,8.28
2022-09-24T03:27:00.450Z,8.24
2022-09-24T03:32:02.516Z,8.24
2022-09-24T03:37:04.110Z,8.24
2022-09-24T03:42:05.978Z,8.23
2022-09-24T03:47:08.422Z,8.16
2022-09-24T03:52:10.249Z,7.81
2022-09-24T03:57:14.852Z,7.74
2022-09-24T04:02:16.890Z,7.72
2022-09-24T04:07:20.325Z,7.71
2022-09-24T04:12:23.235Z,7.69
2022-09-24T04:17:29.057Z,7.63
2022-09-24T04:22:30.900Z,7.70
2022-09-24T04:27:32.990Z,7.71
2022-09-24T04:32:34.903Z,7.71
2022-09-24T04:37:37.453Z,7.68
2022-09-24T04:42:40.508Z,7.53
2022-09-24T04:47:42.092Z,7.43
2022-09-24T04:52:43.870Z,7.57
2022-09-24T04:57:46.416Z,7.68
2022-09-24T05:02:55.522Z,7.79
2022-09-24T05:07:58.330Z,7.55
2022-09-24T05:13:00.753Z,7.58
2022-09-24T05:18:03.011Z,7.64
2022-09-24T05:23:05.385Z,7.76
2022-09-24T05:28:07.031Z,7.86
2022-09-24T05:33:10.398Z,7.93
2022-09-24T05:38:12.184Z,8.00
2022-09-24T05:43:14.988Z,8.07
2022-09-24T05:48:17.388Z,8.19
2022-09-24T05:53:18.938Z,8.36
2022-09-24T05:58:20.912Z,8.54
2022-09-24T06:03:22.949Z,8.77
2022-09-24T06:08:24.570Z,9.07
2022-09-24T06:13:26.866Z,9.33
2022-09-24T06:18:28.655Z,9.52
2022-09-24T06:23:31.292Z,9.69
2022-09-24T06:28:32.922Z,9.81
2022-09-24T06:33:35.091Z,9.94
2022-09-24T06:38:38.437Z,10.13
2022-09-24T06:43:40.291Z,10.00
2022-09-24T06:48:42.914Z,10.29
2022-09-24T06:53:44.734Z,10.56
2022-09-24T06:58:46.583Z,10.54
2022-09-24T07:03:48.200Z,10.49
2022-09-24T07:08:51.688Z,10.72
2022-09-24T07:13:53.284Z,10.67
2022-09-24T07:18:55.073Z,10.79
2022-09-24T07:23:58.718Z,11.04
2022-09-24T07:29:00.566Z,11.11
2022-09-24T07:34:02.296Z,11.17
2022-09-24T07:39:04.065Z,11.12
2022-09-24T07:44:06.066Z,11.19
2022-09-24T07:49:07.702Z,11.23
2022-09-24T07:54:15.009Z,11.57
2022-09-24T07:59:20.283Z,12.02
2022-09-24T08:04:22.240Z,12.01
2022-09-24T08:09:24.213Z,11.94
2022-09-24T08:14:26.200Z,12.15
2022-09-24T08:19:28.257Z,12.48
2022-09-24T08:24:31.172Z,12.38
2022-09-24T08:29:33.200Z,12.13
2022-09-24T08:34:38.431Z,12.48
2022-09-24T08:39:40.275Z,12.72
2022-09-24T08:45:07.145Z,12.82
2022-09-24T08:50:24.688Z,13.10
2022-09-24T08:55:41.577Z,13.44
2022-09-24T09:01:12.411Z,13.50
2022-09-24T09:06:34.010Z,13.55
2022-09-24T09:11:39.826Z,13.76
2022-09-24T09:16:47.832Z,13.83
2022-09-24T09:21:56.459Z,13.91
2022-09-24T09:26:58.333Z,14.05
2022-09-24T09:32:24.811Z,14.19
2022-09-24T09:37:35.618Z,14.33
2022-09-24T09:42:40.523Z,14.64
2022-09-24T09:47:49.511Z,14.56
2022-09-24T09:52:51.316Z,14.71
2022-09-24T09:57:58.903Z,14.87
2022-09-24T10:03:01.408Z,14.93
2022-09-24T10:08:03.512Z,15.05
2022-09-24T10:13:12.663Z,15.02
2022-09-24T10:18:14.654Z,15.09
2022-09-24T10:23:23.162Z,15.41
2022-09-24T10:28:44.302Z,15.26
2022-09-24T10:33:49.761Z,14.89
2022-09-24T10:39:02.323Z,15.26
2022-09-24T10:44:06.290Z,15.56
2022-09-24T10:49:22.582Z,15.79
2022-09-24T10:54:44.034Z,15.77
2022-09-24T11:00:22.287Z,16.12
2022-09-24T11:05:30.479Z,16.13
2022-09-24T11:11:03.244Z,16.10
2022-09-24T11:16:23.618Z,16.12
2022-09-24T11:21:31.055Z,16.04
2022-09-24T11:26:54.142Z,16.30
2022-09-24T11:32:11.447Z,16.51
2022-09-24T11:37:22.159Z,16.65
2022-09-24T11:42:44.493Z,16.80
2022-09-24T11:47:49.190Z,16.98
2022-09-24T11:53:06.292Z,16.83
2022-09-24T11:58:29.230Z,16.98
2022-09-24T12:03:39.841Z,17.29
2022-09-24T12:08:50.382Z,17.41
2022-09-24T12:14:19.485Z,17.53
2022-09-24T12:19:29.414Z,17.85
2022-09-24T12:24:46.339Z,17.73
2022-09-24T12:30:19.128Z,18.05
2022-09-24T12:35:34.036Z,18.05
2022-09-24T12:40:38.646Z,18.05
2022-09-24T12:45:40.650Z,18.05
2022-09-24T12:50:45.249Z,18.12
2022-09-24T12:55:47.379Z,18.23
2022-09-24T13:00:49.213Z,18.22
2022-09-24T13:05:50.884Z,18.31
2022-09-24T13:10:56.110Z,18.31
2022-09-24T13:16:06.552Z,18.57
2022-09-24T13:21:18.530Z,18.72
2022-09-24T13:26:35.548Z,18.77
2022-09-24T13:31:49.288Z,18.77
2022-09-24T13:37:20.105Z,18.82
2022-09-24T13:42:37.675Z,18.66
2022-09-24T13:47:54.122Z,18.65
2022-09-24T13:53:01.673Z,18.67
2022-09-24T13:58:03.370Z,18.48
2022-09-24T14:03:20.700Z,18.32
2022-09-24T14:08:24.360Z,18.41
2022-09-24T14:13:26.622Z,18.40
2022-09-24T14:18:29.539Z,18.34
2022-09-24T14:23:37.943Z,18.33
2022-09-24T14:28:39.865Z,18.44
2022-09-24T14:33:42.147Z,18.43
2022-09-24T14:38:58.098Z,18.42
2022-09-24T14:44:06.151Z,18.49
2022-09-24T14:49:24.625Z,18.48
2022-09-24T14:54:33.787Z,18.45
2022-09-24T14:59:38.116Z,18.38
2022-09-24T15:04:39.990Z,18.36
2022-09-24T15:09:42.464Z,18.33
2022-09-24T15:15:00.784Z,18.25
2022-09-24T15:20:04.200Z,18.22
2022-09-24T15:25:06.936Z,18.09
2022-09-24T15:30:19.683Z,18.02
2022-09-24T15:35:21.407Z,17.98
2022-09-24T15:40:25.531Z,17.99
2022-09-24T15:45:27.354Z,17.92
2022-09-24T15:50:29.030Z,17.78
2022-09-24T15:55:31.345Z,17.81
2022-09-24T16:00:33.269Z,17.85
2022-09-24T16:05:35.178Z,17.81
2022-09-24T16:10:36.970Z,17.72
2022-09-24T16:15:39.657Z,17.72
2022-09-24T16:20:42.113Z,17.61
2022-09-24T16:25:58.307Z,17.49
2022-09-24T16:31:06.529Z,17.40
2022-09-24T16:36:08.936Z,17.33
2022-09-24T16:41:10.995Z,17.03
2022-09-24T16:46:16.339Z,16.72
2022-09-24T16:51:21.447Z,16.54
2022-09-24T16:56:23.356Z,16.22
2022-09-24T17:01:24.969Z,16.19
2022-09-24T17:06:29.285Z,16.22
2022-09-24T17:11:31.039Z,16.16
2022-09-24T17:16:34.765Z,16.02
2022-09-24T17:21:38.462Z,16.03
2022-09-24T17:26:40.074Z,16.24
2022-09-24T17:31:41.959Z,16.27
2022-09-24T17:36:43.954Z,16.24
2022-09-24T17:41:45.834Z,15.91
2022-09-24T17:46:47.638Z,15.90
2022-09-24T17:51:49.455Z,15.87
2022-09-24T17:56:51.578Z,15.83
2022-09-24T18:01:53.798Z,15.79
2022-09-24T18:06:55.621Z,15.54
2022-09-24T18:11:58.343Z,15.58
2022-09-24T18:17:01.351Z,15.67
2022-09-24T18:22:04.612Z,15.62
2022-09-24T18:27:06.550Z,15.55
2022-09-24T18:32:08.133Z,15.25
2022-09-24T18:37:10.339Z,15.09
2022-09-24T18:42:12.085Z,15.18
2022-09-24T18:47:14.766Z,15.32
2022-09-24T18:52:16.429Z,15.33
2022-09-24T18:57:18.386Z,15.23
2022-09-24T19:02:23.755Z,15.25
2022-09-24T19:07:25.605Z,15.34
2022-09-24T19:12:29.789Z,15.32
2022-09-24T19:17:32.789Z,15.35
2022-09-24T19:22:34.664Z,15.36
2022-09-24T19:27:36.412Z,15.04
2022-09-24T19:32:39.981Z,15.01
2022-09-24T19:37:43.026Z,14.94
2022-09-24T19:42:45.459Z,14.99
2022-09-24T19:47:47.277Z,15.06
2022-09-24T19:52:49.205Z,15.08
2022-09-24T19:57:50.782Z,15.07
2022-09-24T20:02:52.519Z,15.00
2022-09-24T20:07:54.204Z,14.97
2022-09-24T20:12:57.314Z,14.87
2022-09-24T20:17:59.035Z,14.79
2022-09-24T20:23:01.381Z,14.73
2022-09-24T20:28:03.191Z,14.65
2022-09-24T20:33:07.547Z,14.58
2022-09-24T20:38:09.485Z,14.53
2022-09-24T20:43:11.048Z,14.46
2022-09-24T20:48:12.705Z,14.40
2022-09-24T20:53:14.295Z,14.35
2022-09-24T20:58:16.618Z,14.33
2022-09-24T21:03:42.215Z,14.28
2022-09-24T21:08:45.301Z,14.18
2022-09-24T21:13:52.210Z,14.10
2022-09-24T21:18:56.701Z,13.99
2022-09-24T21:24:00.751Z,13.91
2022-09-24T21:29:08.567Z,13.73
2022-09-24T21:34:11.988Z,13.73
2022-09-24T21:39:19.457Z,13.64
2022-09-24T21:44:21.893Z,13.62
2022-09-24T21:49:23.681Z,13.59
2022-09-24T21:54:25.727Z,13.56
2022-09-24T21:59:46.496Z,13.59
2022-09-24T22:04:48.431Z,13.54
2022-09-24T22:09:50.083Z,13.52
2022-09-24T22:14:52.323Z,13.46
2022-09-24T22:19:54.106Z,13.43
2022-09-24T22:24:55.668Z,13.39
2022-09-24T22:29:57.930Z,13.29
2022-09-24T22:35:17.970Z,13.23
2022-09-24T22:40:19.817Z,13.16
2022-09-24T22:45:21.369Z,13.12
2022-09-24T22:50:22.981Z,13.08
2022-09-24T22:55:24.826Z,13.04
2022-09-24T23:00:26.447Z,12.98
2022-09-24T23:05:29.576Z,12.98
2022-09-24T23:10:31.193Z,12.96
2022-09-24T23:15:34.566Z,12.95
2022-09-24T23:20:38.127Z,12.91
2022-09-24T23:25:39.910Z,12.94
2022-09-24T23:30:41.552Z,12.94
2022-09-24T23:35:43.130Z,12.89
2022-09-24T23:40:45.069Z,12.89
2022-09-24T23:45:47.408Z,12.88
2022-09-24T23:50:49.097Z,12.90
2022-09-24T23:55:52.119Z,12.89
